Olney, Maryland
Current Conditions -  °F | °C
As of 9:15 AM on Thursday 23 Oct 2014 (Local Time) from KGAI Reporting Station
Overcast Overcast  
Wind Chill: 52°   Ceiling: 3400
Heat Index: 52°   Visibility: 10mi
Dew Point: 43°   Wind: 13mph
Humidity: 71%   Direction: 310°NW
Pressure: 29.93"   Gusts: 20mph
Location:  39.15°N, 77.07°W
Report Text: KGAI 231315Z 31011G17KT 10SM OVC034 11/06 A2993 RMK AO1
Loading
Personal Weather Stations






























Interactive Weather Map
Tropical Storm Tracking
New forecast layout! Learn more

10-Day Weather Forecast

Advertisements
Track Severe Weather on mobile